Time;durP1;ratioP1;P1;durP2;ratioP2;P2;SDS_P1;SDS_P2;PMS_P1;PMS_P2;Temp;Humidity;BMP_temperature;BMP_pressure;BME280_temperature;BME280_humidity;BME280_pressure;Samples;Min_cycle;Max_cycle;Signal;HPM_P1;HPM_P2
2022/07/23 00:02:22;;;;;;;3.70;2.28;;;20.10;59.50;;;;;;4810554;29;20119;-75
2022/07/23 00:04:48;;;;;;;6.15;2.55;;;20.00;59.40;;;;;;4816150;29;20033;-75
2022/07/23 00:07:14;;;;;;;3.80;2.22;;;20.00;59.50;;;;;;4816173;29;20113;-74
2022/07/23 00:09:40;;;;;;;4.38;2.40;;;19.90;59.40;;;;;;4818418;29;20050;-75
2022/07/23 00:12:06;;;;;;;4.95;2.00;;;19.90;59.50;;;;;;4799777;29;20031;-75
2022/07/23 00:14:32;;;;;;;4.20;2.53;;;19.90;59.60;;;;;;4818305;29;20041;-76
2022/07/23 00:16:58;;;;;;;4.18;2.53;;;19.90;59.70;;;;;;4815902;29;21099;-76
2022/07/23 00:19:24;;;;;;;2.95;2.03;;;19.80;59.60;;;;;;4819062;29;20078;-75
2022/07/23 00:21:50;;;;;;;3.78;2.75;;;19.80;59.70;;;;;;4817446;29;20029;-75
2022/07/23 00:24:16;;;;;;;5.68;3.92;;;19.70;59.60;;;;;;4817701;29;20441;-76
2022/07/23 00:26:42;;;;;;;4.18;2.70;;;19.70;59.70;;;;;;4816588;29;20034;-75
2022/07/23 00:29:07;;;;;;;5.72;3.20;;;19.60;59.50;;;;;;4817729;29;20413;-75
2022/07/23 00:31:34;;;;;;;5.72;3.38;;;19.70;59.80;;;;;;4818463;29;20393;-75
2022/07/23 00:34:01;;;;;;;6.13;2.97;;;19.60;59.70;;;;;;4812678;29;20039;-75
2022/07/23 00:36:27;;;;;;;4.13;3.15;;;19.50;59.60;;;;;;4814739;29;20054;-76
2022/07/23 00:38:53;;;;;;;5.07;2.95;;;19.50;59.70;;;;;;4798488;29;20022;-75
2022/07/23 00:41:19;;;;;;;3.78;2.90;;;19.40;59.60;;;;;;4815094;29;20080;-76
2022/07/23 00:43:45;;;;;;;3.95;2.85;;;19.40;59.70;;;;;;4814715;29;20054;-75
2022/07/23 00:46:11;;;;;;;3.13;2.50;;;19.40;59.80;;;;;;4783966;29;20038;-75
2022/07/23 00:48:37;;;;;;;5.22;2.60;;;19.30;59.70;;;;;;4815676;29;20034;-75
2022/07/23 00:51:03;;;;;;;4.03;2.70;;;19.30;59.80;;;;;;4816996;29;20034;-75
2022/07/23 00:53:31;;;;;;;5.25;3.13;;;19.20;59.70;;;;;;4815527;29;20589;-75
2022/07/23 00:55:58;;;;;;;5.15;3.58;;;19.20;59.80;;;;;;4813246;29;20146;-75
2022/07/23 00:58:24;;;;;;;5.15;3.83;;;19.20;59.90;;;;;;4816066;29;20026;-75
2022/07/23 01:00:50;;;;;;;4.82;2.78;;;19.10;59.80;;;;;;4814058;29;20452;-75
2022/07/23 01:03:16;;;;;;;4.10;3.42;;;19.00;59.60;;;;;;4814439;29;20034;-75
2022/07/23 01:05:43;;;;;;;4.57;3.00;;;19.00;59.70;;;;;;4813172;29;20042;-75
2022/07/23 01:08:09;;;;;;;4.65;3.03;;;19.00;59.70;;;;;;4814766;29;20053;-75
2022/07/23 01:10:35;;;;;;;5.38;2.97;;;18.90;59.60;;;;;;4800866;29;20548;-75
2022/07/23 01:13:06;;;;;;;4.40;2.78;;;18.90;59.70;;;;;;4797494;29;20044;-75
2022/07/23 01:15:34;;;;;;;4.63;3.00;;;18.90;59.80;;;;;;4797777;29;20045;-76
2022/07/23 01:18:01;;;;;;;5.00;2.70;;;18.90;59.80;;;;;;4798744;29;20094;-75
2022/07/23 01:20:28;;;;;;;6.63;3.20;;;18.80;59.70;;;;;;4799318;29;20038;-75
2022/07/23 01:22:55;;;;;;;3.72;3.00;;;18.80;59.80;;;;;;4815070;29;20212;-75
2022/07/23 01:25:21;;;;;;;4.55;3.05;;;18.70;59.70;;;;;;4801111;29;20038;-75
2022/07/23 01:27:54;;;;;;;4.05;3.15;;;18.70;59.80;;;;;;4796975;29;20489;-75
2022/07/23 01:30:20;;;;;;;4.97;3.67;;;18.60;59.60;;;;;;4798701;29;20558;-75
2022/07/23 01:32:47;;;;;;;3.38;2.70;;;18.60;59.60;;;;;;4810828;29;20034;-75
2022/07/23 01:35:13;;;;;;;3.17;2.88;;;18.50;59.60;;;;;;4814432;29;20034;-76
2022/07/23 01:37:40;;;;;;;5.80;3.50;;;18.50;59.60;;;;;;4810329;29;20055;-76
2022/07/23 01:40:07;;;;;;;5.95;4.03;;;18.40;59.40;;;;;;4779485;29;20038;-76
2022/07/23 01:42:34;;;;;;;4.10;3.28;;;18.40;59.60;;;;;;4794385;29;20066;-75
2022/07/23 01:45:00;;;;;;;6.25;3.17;;;18.40;59.60;;;;;;4797704;29;20459;-75
2022/07/23 01:47:27;;;;;;;4.75;3.47;;;18.40;59.70;;;;;;4810824;29;20540;-76
2022/07/23 01:49:55;;;;;;;4.72;2.95;;;18.30;59.60;;;;;;4797818;29;20406;-75
2022/07/23 01:52:43;;;;;;;4.82;3.15;;;18.30;59.70;;;;;;4794684;29;20274;-75
2022/07/23 01:55:09;;;;;;;6.65;3.03;;;18.20;59.50;;;;;;4795929;29;20034;-76
2022/07/23 01:57:38;;;;;;;3.85;3.05;;;18.20;59.60;;;;;;4796971;29;20047;-76
2022/07/23 02:00:05;;;;;;;4.03;3.13;;;18.20;59.70;;;;;;4794009;29;20461;-75
2022/07/23 02:02:38;;;;;;;7.13;3.97;;;18.10;59.60;;;;;;4794557;29;20030;-75
2022/07/23 02:05:05;;;;;;;4.32;2.97;;;18.10;59.70;;;;;;4794868;29;20205;-75
2022/07/23 02:07:31;;;;;;;3.88;3.13;;;18.00;59.60;;;;;;4794667;29;20031;-75
2022/07/23 02:09:58;;;;;;;4.53;3.35;;;18.00;59.70;;;;;;4796964;29;20042;-75
2022/07/23 02:12:24;;;;;;;5.60;3.33;;;18.00;59.70;;;;;;4794401;29;20042;-75
2022/07/23 02:14:50;;;;;;;4.50;3.25;;;17.90;59.60;;;;;;4797274;29;20057;-76
2022/07/23 02:17:16;;;;;;;4.28;2.75;;;17.90;59.70;;;;;;4796414;29;20137;-75
2022/07/23 02:19:42;;;;;;;4.45;2.95;;;17.90;59.70;;;;;;4798948;29;20026;-76
2022/07/23 02:22:08;;;;;;;3.95;3.20;;;17.80;59.60;;;;;;4794165;29;20526;-75
2022/07/23 02:24:34;;;;;;;4.20;3.17;;;17.80;59.60;;;;;;4799523;29;20038;-75
2022/07/23 02:27:00;;;;;;;3.15;2.85;;;17.80;59.70;;;;;;4797203;29;20065;-75
2022/07/23 02:29:26;;;;;;;10.73;4.15;;;17.80;59.80;;;;;;4796764;29;20030;-76
2022/07/23 02:31:54;;;;;;;4.80;4.35;;;17.70;59.60;;;;;;4793431;29;20034;-75
2022/07/23 02:34:19;;;;;;;3.92;3.20;;;17.70;59.70;;;;;;4796129;29;20034;-75
2022/07/23 02:36:45;;;;;;;7.45;4.00;;;17.60;59.60;;;;;;4795111;29;20153;-75
2022/07/23 02:39:12;;;;;;;3.58;3.28;;;17.60;59.70;;;;;;4795431;29;20026;-75
2022/07/23 02:41:38;;;;;;;3.78;3.17;;;17.60;59.80;;;;;;4779974;29;20103;-76
2022/07/23 02:44:04;;;;;;;3.80;3.28;;;17.50;59.60;;;;;;4796271;29;20034;-75
2022/07/23 02:46:31;;;;;;;4.32;3.70;;;17.50;59.70;;;;;;4794641;29;20547;-76
2022/07/23 02:48:57;;;;;;;4.35;3.40;;;17.40;59.60;;;;;;4793483;29;20460;-76
2022/07/23 02:51:23;;;;;;;4.38;3.63;;;17.40;59.90;;;;;;4795329;29;20027;-76
2022/07/23 02:53:55;;;;;;;4.72;3.38;;;17.30;59.50;;;;;;4798227;29;20525;-75
2022/07/23 02:56:21;;;;;;;5.25;3.78;;;17.30;59.60;;;;;;4811658;29;20042;-75
2022/07/23 02:58:47;;;;;;;3.78;3.22;;;17.30;59.70;;;;;;4782167;29;20670;-75
2022/07/23 03:01:14;;;;;;;3.45;3.03;;;17.20;59.50;;;;;;4808851;29;20433;-76
2022/07/23 03:03:39;;;;;;;4.82;2.83;;;17.20;59.60;;;;;;4799904;29;20035;-76
2022/07/23 03:06:06;;;;;;;3.95;2.95;;;17.20;59.70;;;;;;4796771;29;20038;-76
2022/07/23 03:08:31;;;;;;;9.23;3.72;;;17.20;59.70;;;;;;4793872;29;20520;-76
2022/07/23 03:10:57;;;;;;;4.03;3.63;;;17.20;59.80;;;;;;4796793;29;20031;-76
2022/07/23 03:13:23;;;;;;;4.93;3.80;;;17.20;59.80;;;;;;4793497;29;20030;-75
2022/07/23 03:15:49;;;;;;;4.35;3.33;;;17.10;59.70;;;;;;4794868;29;20145;-75
2022/07/23 03:18:15;;;;;;;3.65;3.17;;;17.10;59.70;;;;;;4793249;29;20031;-76
2022/07/23 03:20:41;;;;;;;5.22;3.22;;;17.10;59.80;;;;;;4777442;29;20038;-75
2022/07/23 03:23:09;;;;;;;3.15;2.85;;;17.10;59.90;;;;;;4798009;29;20031;-75
2022/07/23 03:25:35;;;;;;;4.30;3.90;;;17.10;59.90;;;;;;4802244;29;20500;-75
2022/07/23 03:28:01;;;;;;;7.53;3.22;;;17.00;59.80;;;;;;4804881;29;20278;-75
2022/07/23 03:30:28;;;;;;;3.78;3.17;;;17.00;59.80;;;;;;4796825;29;20268;-76
2022/07/23 03:32:54;;;;;;;3.85;3.08;;;17.00;59.90;;;;;;4798558;29;20026;-75
2022/07/23 03:35:20;;;;;;;5.47;3.45;;;17.00;59.90;;;;;;4797436;29;20065;-76
2022/07/23 03:38:03;;;;;;;4.65;3.20;;;16.90;59.80;;;;;;4794697;29;20063;-76
2022/07/23 03:40:29;;;;;;;3.63;3.25;;;16.90;59.80;;;;;;4797616;29;20319;-76
2022/07/23 03:42:56;;;;;;;3.17;2.88;;;16.80;59.60;;;;;;4796712;29;20067;-76
2022/07/23 03:45:22;;;;;;;6.47;5.70;;;16.80;59.70;;;;;;4812677;29;20443;-76
2022/07/23 03:47:48;;;;;;;4.32;3.42;;;16.80;59.80;;;;;;4797197;29;20152;-75
2022/07/23 03:50:14;;;;;;;4.90;3.55;;;16.80;59.80;;;;;;4783230;29;20122;-76
2022/07/23 03:52:41;;;;;;;6.07;4.18;;;16.70;59.80;;;;;;4798332;29;20027;-76
2022/07/23 03:55:07;;;;;;;8.45;3.88;;;16.70;59.80;;;;;;4784465;29;20542;-76
2022/07/23 03:57:33;;;;;;;4.75;3.65;;;16.70;59.90;;;;;;4782572;29;20046;-77
2022/07/23 03:59:59;;;;;;;4.93;3.45;;;16.70;60.00;;;;;;4797308;29;20031;-76
2022/07/23 04:02:25;;;;;;;3.88;3.55;;;16.60;59.80;;;;;;4798081;29;20045;-75
2022/07/23 04:04:51;;;;;;;4.38;3.70;;;16.60;59.90;;;;;;4800073;29;20561;-75
2022/07/23 04:07:17;;;;;;;3.95;3.10;;;16.50;59.80;;;;;;4784469;29;20759;-75
2022/07/23 04:09:44;;;;;;;7.10;3.47;;;16.50;59.80;;;;;;4799664;29;20031;-75
2022/07/23 04:12:10;;;;;;;3.90;3.33;;;16.50;60.40;;;;;;4798207;29;20482;-75
2022/07/23 04:14:36;;;;;;;3.47;3.03;;;16.50;59.90;;;;;;4798408;29;20027;-75
2022/07/23 04:17:02;;;;;;;7.07;3.40;;;16.50;59.90;;;;;;4795956;29;20511;-75
2022/07/23 04:19:30;;;;;;;5.22;3.50;;;16.60;60.20;;;;;;4814079;29;20030;-75
2022/07/23 04:22:02;;;;;;;4.85;3.80;;;16.50;60.00;;;;;;4797314;29;20482;-75
2022/07/23 04:24:30;;;;;;;3.75;2.97;;;16.50;60.00;;;;;;4797051;29;20134;-75
2022/07/23 04:26:57;;;;;;;4.50;3.38;;;16.50;60.00;;;;;;4796910;29;20034;-76
2022/07/23 04:29:24;;;;;;;3.50;2.90;;;16.50;60.00;;;;;;4798090;29;20137;-75
2022/07/23 04:31:51;;;;;;;5.18;3.10;;;16.50;60.00;;;;;;4795179;29;20451;-76
2022/07/23 04:34:17;;;;;;;5.18;2.92;;;16.50;60.00;;;;;;4798814;29;20039;-76
2022/07/23 04:36:43;;;;;;;4.65;3.10;;;16.50;60.00;;;;;;4796734;29;20051;-75
2022/07/23 04:39:09;;;;;;;5.60;2.88;;;16.60;60.20;;;;;;4813376;29;20425;-76
2022/07/23 04:41:35;;;;;;;5.63;4.22;;;16.60;60.10;;;;;;4797749;29;20046;-75
2022/07/23 04:44:02;;;;;;;4.82;2.78;;;16.60;60.10;;;;;;4812700;29;20068;-75
2022/07/23 04:46:28;;;;;;;3.78;3.00;;;16.60;60.10;;;;;;4799264;29;20038;-75
2022/07/23 04:48:55;;;;;;;3.33;2.78;;;16.60;60.10;;;;;;4800227;29;20460;-75
2022/07/23 04:51:21;;;;;;;4.03;3.00;;;16.70;60.20;;;;;;4798624;29;20092;-75
2022/07/23 04:53:47;;;;;;;4.28;3.08;;;16.70;60.20;;;;;;4796820;29;20023;-76
2022/07/23 04:56:13;;;;;;;3.65;3.20;;;16.70;60.10;;;;;;4802267;29;20163;-76
2022/07/23 04:58:39;;;;;;;3.10;2.80;;;16.70;60.10;;;;;;4798220;29;20037;-75
2022/07/23 05:01:06;;;;;;;3.35;2.70;;;16.80;60.20;;;;;;4780709;29;20047;-75
2022/07/23 05:03:34;;;;;;;4.63;3.10;;;16.80;60.20;;;;;;4785726;29;20188;-76
2022/07/23 05:06:00;;;;;;;3.78;2.92;;;16.80;60.20;;;;;;4801715;29;20234;-76
2022/07/23 05:08:27;;;;;;;4.40;2.80;;;16.80;60.70;;;;;;4802004;29;20043;-76
2022/07/23 05:10:55;;;;;;;4.75;2.60;;;16.80;60.10;;;;;;4799750;29;20045;-76
2022/07/23 05:13:22;;;;;;;4.43;3.10;;;16.90;60.20;;;;;;4800221;29;20027;-76
2022/07/23 05:15:51;;;;;;;3.45;2.67;;;17.00;60.30;;;;;;4803316;29;20092;-76
2022/07/23 05:18:17;;;;;;;6.22;3.00;;;17.00;60.20;;;;;;4812758;29;20035;-77
2022/07/23 05:20:43;;;;;;;5.28;2.70;;;17.10;60.30;;;;;;4801820;29;20045;-78
2022/07/23 05:23:13;;;;;;;6.60;2.60;;;17.10;60.20;;;;;;4798546;29;20031;-75
2022/07/23 05:25:40;;;;;;;4.90;2.72;;;17.10;60.10;;;;;;4800927;29;20022;-77
2022/07/23 05:28:06;;;;;;;3.83;2.47;;;17.20;60.20;;;;;;4801507;29;20042;-75
2022/07/23 05:30:33;;;;;;;5.97;3.03;;;17.30;60.30;;;;;;4802509;29;20264;-75
2022/07/23 05:33:02;;;;;;;4.68;2.40;;;17.40;60.40;;;;;;4804616;29;20329;-76
2022/07/23 05:35:28;;;;;;;3.30;2.70;;;17.40;60.30;;;;;;4802635;29;20031;-77
2022/07/23 05:38:33;;;;;;;4.05;2.50;;;17.60;60.50;;;;;;4803000;29;20034;-76
2022/07/23 05:41:00;;;;;;;3.53;2.53;;;17.60;60.20;;;;;;4800465;29;20077;-76
2022/07/23 05:43:27;;;;;;;5.43;2.75;;;17.70;60.30;;;;;;4800754;29;20421;-76
2022/07/23 05:45:53;;;;;;;3.15;2.88;;;17.80;60.30;;;;;;4797626;29;21509;-75
2022/07/23 05:48:20;;;;;;;4.88;3.20;;;17.90;60.30;;;;;;4804328;29;20034;-76
2022/07/23 05:50:57;;;;;;;3.30;2.83;;;17.90;60.30;;;;;;4800913;29;20125;-76
2022/07/23 05:53:31;;;;;;;5.88;2.85;;;18.00;60.30;;;;;;4800281;29;20440;-76
2022/07/23 05:56:19;;;;;;;4.18;3.20;;;18.10;60.40;;;;;;4795692;29;20947;-76
2022/07/23 05:58:45;;;;;;;4.78;2.97;;;18.20;60.50;;;;;;4793997;29;20034;-76
2022/07/23 06:01:13;;;;;;;5.85;3.05;;;18.20;60.30;;;;;;4809042;29;20057;-76
2022/07/23 06:03:46;;;;;;;3.20;2.83;;;18.30;60.40;;;;;;4792224;29;20037;-76
2022/07/23 06:06:12;;;;;;;5.50;3.15;;;18.40;60.50;;;;;;4801774;29;20406;-76
2022/07/23 06:08:38;;;;;;;3.58;2.83;;;18.50;60.50;;;;;;4796979;29;20043;-76
2022/07/23 06:11:06;;;;;;;8.10;4.15;;;18.60;60.60;;;;;;4795748;29;20115;-78
2022/07/23 06:13:32;;;;;;;3.33;3.03;;;18.60;60.50;;;;;;4794207;29;20389;-76
2022/07/23 06:15:59;;;;;;;7.25;2.58;;;18.80;61.10;;;;;;4792914;29;20513;-76
2022/07/23 06:18:24;;;;;;;9.45;3.85;;;18.90;61.90;;;;;;4777307;29;20126;-78
2022/07/23 06:20:50;;;;;;;7.57;3.40;;;19.10;63.40;;;;;;4793172;29;20115;-76
2022/07/23 06:23:16;;;;;;;5.15;3.00;;;19.30;63.60;;;;;;4794812;29;20488;-76
2022/07/23 06:25:42;;;;;;;3.97;2.95;;;19.50;64.00;;;;;;4801563;29;20145;-76
2022/07/23 06:28:08;;;;;;;5.22;2.70;;;19.70;64.30;;;;;;4799176;29;20027;-75
2022/07/23 06:30:34;;;;;;;5.63;2.75;;;20.00;64.80;;;;;;4798405;29;20045;-76
2022/07/23 06:33:03;;;;;;;3.22;2.90;;;20.20;65.00;;;;;;4795445;29;20038;-77
2022/07/23 06:35:28;;;;;;;4.65;2.35;;;20.60;65.20;;;;;;4797390;29;20458;-78
2022/07/23 06:37:54;;;;;;;3.95;2.58;;;20.90;65.30;;;;;;4776627;29;1199680;-80
2022/07/23 06:40:21;;;;;;;7.00;2.60;;;21.10;65.00;;;;;;4803377;29;20487;-79
2022/07/23 06:42:47;;;;;;;5.28;2.88;;;21.50;64.90;;;;;;4802365;29;20038;-76
2022/07/23 06:45:22;;;;;;;4.68;2.88;;;21.90;64.60;;;;;;4785783;29;20275;-76
2022/07/23 06:47:47;;;;;;;3.55;2.45;;;22.30;63.90;;;;;;4802570;29;20030;-78
2022/07/23 06:50:13;;;;;;;6.75;2.60;;;22.60;62.90;;;;;;4800631;29;20037;-78
2022/07/23 06:52:41;;;;;;;3.80;2.30;;;23.10;62.60;;;;;;4817476;29;20852;-77
2022/07/23 06:55:07;;;;;;;4.07;2.40;;;23.50;62.10;;;;;;4818600;29;20065;-75
2022/07/23 06:57:33;;;;;;;2.85;2.20;;;23.80;61.30;;;;;;4815697;29;20069;-75
2022/07/23 06:59:59;;;;;;;3.05;2.15;;;23.80;60.80;;;;;;4803606;29;20543;-78
2022/07/23 07:02:25;;;;;;;3.85;3.17;;;23.60;60.40;;;;;;4816811;29;20129;-77
2022/07/23 07:04:51;;;;;;;3.50;3.20;;;23.30;60.30;;;;;;4821760;29;20034;-76
2022/07/23 07:07:17;;;;;;;4.97;3.40;;;23.20;60.50;;;;;;4817330;29;20284;-75
2022/07/23 07:09:44;;;;;;;4.55;3.10;;;22.90;60.30;;;;;;4816895;29;20031;-75
2022/07/23 07:12:11;;;;;;;4.20;3.10;;;22.80;60.50;;;;;;4799790;29;20034;-79
2022/07/23 07:14:37;;;;;;;5.25;3.40;;;22.60;60.50;;;;;;4805373;29;20069;-79
2022/07/23 07:17:03;;;;;;;4.45;3.40;;;22.70;60.60;;;;;;4819164;29;20050;-78
2022/07/23 07:19:29;;;;;;;3.42;2.83;;;22.70;60.40;;;;;;4821539;29;20645;-78
2022/07/23 07:21:55;;;;;;;6.88;3.25;;;22.70;60.40;;;;;;4803813;29;20163;-76
2022/07/23 07:24:21;;;;;;;4.90;2.70;;;22.80;60.70;;;;;;4820830;29;20030;-76
2022/07/23 07:26:47;;;;;;;4.32;3.05;;;23.00;60.80;;;;;;4821293;29;20098;-75
2022/07/23 07:29:13;;;;;;;4.00;2.88;;;23.30;60.80;;;;;;4802806;29;20031;-75
2022/07/23 07:31:39;;;;;;;5.65;3.63;;;23.60;60.80;;;;;;4817717;29;20063;-76
2022/07/23 07:34:04;;;;;;;3.83;2.00;;;23.90;60.50;;;;;;4816197;29;20056;-75
2022/07/23 07:36:30;;;;;;;3.88;2.35;;;24.10;60.30;;;;;;4813241;29;20205;-74
2022/07/23 07:38:56;;;;;;;3.80;2.45;;;24.50;60.60;;;;;;4818341;29;20041;-75
2022/07/23 07:41:26;;;;;;;3.20;2.28;;;25.00;60.90;;;;;;4814301;29;20801;-75
2022/07/23 07:43:52;;;;;;;2.17;1.80;;;25.40;60.40;;;;;;4815148;29;20030;-74
2022/07/23 07:46:18;;;;;;;2.45;2.10;;;25.90;60.00;;;;;;4800364;29;20044;-76
2022/07/23 07:48:44;;;;;;;3.35;2.03;;;26.30;59.40;;;;;;4816279;29;20037;-75
2022/07/23 07:51:10;;;;;;;2.08;1.45;;;26.80;58.60;;;;;;4816632;29;20038;-75
2022/07/23 07:53:35;;;;;;;2.22;1.77;;;27.40;57.30;;;;;;4817962;29;20029;-75
2022/07/23 07:56:01;;;;;;;1.98;1.77;;;28.10;55.90;;;;;;4815927;29;20038;-74
2022/07/23 07:58:27;;;;;;;2.13;1.52;;;28.80;54.70;;;;;;4819091;29;20499;-75
2022/07/23 08:00:53;;;;;;;1.60;1.13;;;29.30;53.70;;;;;;4812928;29;20038;-75
2022/07/23 08:03:19;;;;;;;1.80;1.42;;;29.80;53.00;;;;;;4814482;29;20030;-75
2022/07/23 08:05:45;;;;;;;2.45;1.35;;;30.10;52.40;;;;;;4813003;29;20125;-74
2022/07/23 08:08:14;;;;;;;1.42;1.17;;;30.20;52.00;;;;;;4797836;29;20043;-75
2022/07/23 08:10:40;;;;;;;1.77;1.48;;;30.10;52.10;;;;;;4813398;29;20278;-74
2022/07/23 08:13:06;;;;;;;3.22;1.63;;;29.90;52.10;;;;;;4814746;29;20482;-75
2022/07/23 08:15:32;;;;;;;2.40;1.63;;;29.60;52.30;;;;;;4816377;29;20034;-74
2022/07/23 08:17:59;;;;;;;1.23;1.13;;;29.40;52.60;;;;;;4818091;29;20373;-75
2022/07/23 08:20:26;;;;;;;1.42;1.15;;;29.20;52.60;;;;;;4798114;29;20074;-74
2022/07/23 08:22:56;;;;;;;1.42;1.00;;;29.10;52.70;;;;;;4813514;29;20057;-75
2022/07/23 08:25:30;;;;;;;1.27;1.17;;;28.90;52.80;;;;;;4817567;29;20035;-75
2022/07/23 08:27:58;;;;;;;1.48;0.93;;;28.80;52.80;;;;;;4818407;29;20038;-75
2022/07/23 08:30:24;;;;;;;1.90;1.20;;;28.60;53.00;;;;;;4818512;29;20043;-75
2022/07/23 08:32:54;;;;;;;2.28;1.48;;;28.50;53.00;;;;;;4820191;29;20185;-74
2022/07/23 08:35:27;;;;;;;0.82;0.82;;;28.30;53.00;;;;;;4818165;29;20034;-75
2022/07/23 08:37:53;;;;;;;;;;;28.20;53.10;;;;;;4819537;29;20197;-74
2022/07/23 08:40:19;;;;;;;1.50;0.88;;;28.00;53.50;;;;;;4821353;29;19970;-75
2022/07/23 08:42:48;;;;;;;1.48;1.00;;;27.90;53.80;;;;;;4816700;29;20300;-74
2022/07/23 08:45:15;;;;;;;1.73;1.20;;;27.90;53.60;;;;;;4801096;29;20069;-75
2022/07/23 08:47:43;;;;;;;1.33;0.88;;;28.00;53.50;;;;;;4814601;29;20095;-74
2022/07/23 08:50:10;;;;;;;1.00;1.00;;;28.10;53.30;;;;;;4800125;29;20126;-74
2022/07/23 08:52:37;;;;;;;1.40;1.27;;;28.10;53.10;;;;;;4816899;29;20041;-74
2022/07/23 08:55:04;;;;;;;0.80;0.80;;;28.10;53.00;;;;;;4818291;29;20042;-74
2022/07/23 08:57:30;;;;;;;0.80;0.80;;;28.10;53.00;;;;;;4816511;29;20046;-74
2022/07/23 08:59:56;;;;;;;1.50;1.40;;;28.00;53.00;;;;;;4798976;29;20550;-74
2022/07/23 09:02:22;;;;;;;0.88;0.73;;;28.00;52.90;;;;;;4815283;29;20122;-75
2022/07/23 09:04:48;;;;;;;1.08;1.02;;;28.00;52.90;;;;;;4813695;29;20090;-75
2022/07/23 09:07:14;;;;;;;1.95;0.90;;;28.00;52.80;;;;;;4815180;29;20046;-74
2022/07/23 09:09:40;;;;;;;2.45;1.00;;;28.10;52.80;;;;;;4817080;29;20031;-74
2022/07/23 09:12:08;;;;;;;1.08;0.98;;;28.10;53.30;;;;;;4812745;29;20574;-75
2022/07/23 09:14:43;;;;;;;1.48;1.00;;;28.20;52.60;;;;;;4814491;29;20031;-75
2022/07/23 09:17:14;;;;;;;0.95;0.77;;;28.30;53.00;;;;;;4812671;29;20066;-76
2022/07/23 09:19:41;;;;;;;1.15;0.70;;;28.50;52.30;;;;;;4816684;29;20034;-76
2022/07/23 09:22:24;;;;;;;1.00;0.80;;;28.50;52.20;;;;;;4797211;29;20034;-76
2022/07/23 09:25:10;;;;;;;0.85;0.85;;;28.50;52.00;;;;;;4814333;29;20289;-76
2022/07/23 09:27:55;;;;;;;2.53;1.10;;;28.60;52.00;;;;;;4814563;29;20030;-76
2022/07/23 09:30:24;;;;;;;1.38;0.70;;;28.60;51.90;;;;;;4814141;29;20027;-75
2022/07/23 09:33:16;;;;;;;1.38;0.85;;;28.70;51.90;;;;;;4813967;29;20034;-75
2022/07/23 09:35:54;;;;;;;1.48;0.90;;;28.90;51.50;;;;;;4809983;29;20405;-76
2022/07/23 09:38:23;;;;;;;1.42;0.90;;;29.20;51.30;;;;;;4811008;29;20073;-75
2022/07/23 09:41:10;;;;;;;3.33;1.10;;;29.40;51.10;;;;;;4812874;29;20034;-75
2022/07/23 09:43:36;;;;;;;4.22;1.85;;;29.70;50.20;;;;;;4799036;29;20198;-75
2022/07/23 09:46:26;;;;;;;2.33;1.38;;;29.80;50.10;;;;;;4816459;29;20031;-75
2022/07/23 09:48:53;;;;;;;1.80;1.23;;;29.80;49.50;;;;;;4813993;29;20042;-75
2022/07/23 09:51:33;;;;;;;2.08;1.13;;;29.70;49.50;;;;;;4813378;29;20477;-76
2022/07/23 09:53:59;;;;;;;5.57;1.20;;;29.60;49.60;;;;;;4814077;29;20026;-75
2022/07/23 09:56:27;;;;;;;2.97;1.38;;;29.60;49.60;;;;;;4798161;29;20512;-76
2022/07/23 09:59:07;;;;;;;2.03;1.27;;;29.60;49.50;;;;;;4815617;29;20038;-76
2022/07/23 10:01:34;;;;;;;3.17;1.50;;;29.60;49.50;;;;;;4813315;29;20041;-75
2022/07/23 10:04:01;;;;;;;1.80;1.10;;;29.50;49.40;;;;;;4812984;29;20035;-75
2022/07/23 10:06:50;;;;;;;1.58;1.23;;;29.50;49.40;;;;;;4813896;29;20094;-75
2022/07/23 10:09:37;;;;;;;1.75;1.65;;;29.40;49.50;;;;;;4814731;29;20380;-75
2022/07/23 10:12:29;;;;;;;1.98;1.27;;;29.40;49.60;;;;;;4795616;29;20045;-75
2022/07/23 10:15:00;;;;;;;1.65;1.13;;;29.30;49.50;;;;;;4813979;29;20045;-76
2022/07/23 10:17:28;;;;;;;2.20;1.35;;;29.20;49.50;;;;;;4813505;29;20074;-75
2022/07/23 10:19:54;;;;;;;1.77;1.33;;;29.20;49.50;;;;;;4816748;29;20046;-76
2022/07/23 10:22:24;;;;;;;1.90;1.50;;;29.10;49.60;;;;;;4813853;29;20385;-75
2022/07/23 10:25:24;;;;;;;1.55;1.00;;;28.90;49.60;;;;;;4812929;29;20039;-76
2022/07/23 10:27:59;;;;;;;1.45;1.35;;;28.70;49.70;;;;;;4810603;29;20179;-76
2022/07/23 10:31:00;;;;;;;3.00;1.42;;;28.50;50.00;;;;;;4799831;29;20030;-75
2022/07/23 10:33:45;;;;;;;2.60;1.50;;;28.20;50.30;;;;;;4813372;29;20042;-75
2022/07/23 10:36:34;;;;;;;2.20;1.30;;;28.00;50.70;;;;;;4815589;29;20133;-75
2022/07/23 10:39:07;;;;;;;2.17;1.30;;;27.80;51.10;;;;;;4819442;29;20860;-75
2022/07/23 10:41:41;;;;;;;2.38;1.20;;;27.60;51.40;;;;;;4799840;29;20042;-75
2022/07/23 10:44:25;;;;;;;2.85;1.25;;;27.40;51.60;;;;;;4797801;29;20424;-75
2022/07/23 10:49:34;;;;;;;1.85;1.25;;;27.00;52.40;;;;;;4810316;29;20123;-75
2022/07/23 10:52:21;;;;;;;1.98;1.42;;;26.90;52.80;;;;;;4798524;29;20042;-75
2022/07/23 10:54:54;;;;;;;3.28;2.17;;;26.60;53.10;;;;;;4815101;29;20027;-76
2022/07/23 10:57:23;;;;;;;1.88;1.30;;;26.50;53.40;;;;;;4816669;29;20076;-79
2022/07/23 11:00:05;;;;;;;2.17;1.70;;;26.40;53.70;;;;;;4819661;29;20030;-77
2022/07/23 11:02:32;;;;;;;6.55;2.33;;;26.30;54.10;;;;;;4817540;29;20053;-77
2022/07/23 11:05:15;;;;;;;3.70;1.50;;;26.30;54.10;;;;;;4805080;29;20026;-77
2022/07/23 11:08:12;;;;;;;4.07;1.63;;;26.50;54.20;;;;;;4819288;29;20484;-76
2022/07/23 11:10:48;;;;;;;2.97;1.45;;;26.70;54.20;;;;;;4823456;29;20330;-76
2022/07/23 11:13:29;;;;;;;1.55;1.35;;;26.80;54.00;;;;;;4820327;29;20034;-76
2022/07/23 11:16:01;;;;;;;2.53;1.30;;;26.90;54.10;;;;;;4822442;29;20043;-76
2022/07/23 11:18:55;;;;;;;2.42;1.35;;;27.00;54.10;;;;;;4818712;29;20551;-77
2022/07/23 11:21:26;;;;;;;1.70;1.30;;;27.10;54.20;;;;;;4801471;29;20108;-76
2022/07/23 11:24:06;;;;;;;3.00;1.30;;;27.20;53.90;;;;;;4817391;29;20054;-76
2022/07/23 11:26:54;;;;;;;2.65;1.50;;;27.40;53.90;;;;;;4814649;29;20034;-76
2022/07/23 11:29:28;;;;;;;1.85;1.20;;;27.40;53.70;;;;;;4812981;29;20047;-77
2022/07/23 11:32:02;;;;;;;1.42;1.20;;;27.40;53.60;;;;;;4813264;29;20042;-77
2022/07/23 11:34:32;;;;;;;2.65;1.30;;;27.40;53.60;;;;;;4812056;29;20288;-76
2022/07/23 11:36:59;;;;;;;2.00;1.58;;;27.30;53.70;;;;;;4811853;29;20143;-78
2022/07/23 11:39:27;;;;;;;1.55;1.42;;;27.20;53.90;;;;;;4814889;29;20121;-78
2022/07/23 11:41:54;;;;;;;3.85;1.90;;;27.10;54.10;;;;;;4814828;29;20242;-81
2022/07/23 11:44:38;;;;;;;1.63;1.40;;;27.00;54.30;;;;;;4813177;29;20083;-82
2022/07/23 11:47:06;;;;;;;1.98;1.60;;;26.90;54.60;;;;;;4814743;29;20504;-83
2022/07/23 11:49:33;;;;;;;2.75;1.65;;;26.90;54.60;;;;;;4811536;29;20026;-82
2022/07/23 11:52:06;;;;;;;2.45;1.40;;;26.80;54.70;;;;;;4796304;29;20455;-78
2022/07/23 11:54:32;;;;;;;;;;;26.70;54.90;;;;;;4813512;29;20042;-81
2022/07/23 11:56:59;;;;;;;2.35;1.38;;;26.70;55.10;;;;;;4812077;29;19932;-78
2022/07/23 11:59:30;;;;;;;1.70;1.60;;;26.60;55.20;;;;;;4800814;29;20627;-83
2022/07/23 12:02:01;;;;;;;2.92;2.47;;;26.60;55.50;;;;;;4817341;29;20496;-80
2022/07/23 12:04:45;;;;;;;1.95;1.83;;;26.50;55.70;;;;;;4820978;29;20026;-80
2022/07/23 12:07:36;;;;;;;2.53;2.00;;;26.50;55.90;;;;;;4816182;29;20629;-80
2022/07/23 12:10:18;;;;;;;3.92;1.98;;;26.50;56.10;;;;;;4817410;29;20026;-81
2022/07/23 12:12:58;;;;;;;3.25;1.90;;;26.50;56.20;;;;;;4814642;29;20045;-83
2022/07/23 12:15:32;;;;;;;3.38;2.00;;;26.50;56.30;;;;;;4819177;29;20070;-80
2022/07/23 12:18:01;;;;;;;2.30;1.77;;;26.40;56.30;;;;;;4819454;29;20578;-83
2022/07/23 12:20:33;;;;;;;5.55;2.30;;;26.40;56.30;;;;;;4819514;29;20034;-86
2022/07/23 12:23:01;;;;;;;5.80;1.42;;;26.40;56.50;;;;;;4815601;29;20605;-83
2022/07/23 12:25:36;;;;;;;2.10;1.70;;;26.40;56.60;;;;;;4822005;29;20042;-84
2022/07/23 12:28:14;;;;;;;2.35;2.13;;;26.50;56.70;;;;;;4815289;29;20033;-83
2022/07/23 12:30:42;;;;;;;4.93;2.03;;;26.60;56.70;;;;;;4817984;29;20125;-87
2022/07/23 12:33:11;;;;;;;2.55;1.58;;;26.80;56.50;;;;;;4818270;29;20062;-80
2022/07/23 12:35:43;;;;;;;2.15;1.80;;;26.90;56.30;;;;;;4803869;29;20303;-84
2022/07/23 12:38:11;;;;;;;1.98;1.77;;;27.10;56.10;;;;;;4805134;29;20302;-85
2022/07/23 12:40:42;;;;;;;2.40;2.00;;;27.30;55.70;;;;;;4803319;29;20026;-80
2022/07/23 12:43:11;;;;;;;3.58;1.60;;;27.50;55.30;;;;;;4818561;29;20042;-80
2022/07/23 12:46:05;;;;;;;4.47;2.30;;;27.70;55.10;;;;;;4820632;29;20105;-83
2022/07/23 12:48:36;;;;;;;2.00;1.60;;;27.80;54.80;;;;;;4814396;29;20129;-79
2022/07/23 12:51:07;;;;;;;2.78;1.10;;;27.90;54.50;;;;;;4814505;29;20133;-78
2022/07/23 12:53:43;;;;;;;1.73;1.20;;;28.00;54.40;;;;;;4813675;29;20497;-82
2022/07/23 12:56:11;;;;;;;2.30;1.25;;;27.90;54.40;;;;;;4814442;29;20062;-81
2022/07/23 12:58:55;;;;;;;3.55;1.50;;;27.70;54.50;;;;;;4816366;29;20121;-78
2022/07/23 13:01:23;;;;;;;2.90;1.67;;;27.60;55.00;;;;;;4815905;29;20026;-77
2022/07/23 13:04:02;;;;;;;5.28;2.25;;;27.40;55.10;;;;;;4797441;29;20038;-78